Main page
METAR-TAF:

METAR-TAF

Airports :

RAF Coningsby

Coningsby, England

latitude: 53-05N, longitude: 000-10W, elevation: 7 m

Current weather observation

The report was made 26 minutes ago, at 08:50 UTC
Wind 9 kt from the Northwest
Temperature 6°C
Humidity 81%
Pressure 1033 hPa
Visibility 10 km or more
Broken clouds at a height of 4500 ft

METAR: EGXC 260850Z 31009KT 9999 BKN045 06/03 Q1033 BLU NOSIG

Time: 09:16 (09:16 UTC)

Forecast

The report was made 1 hour and 34 minutes ago, at 07:42 UTC
Forecast valid from 26 at 09 UTC to 27 at 03 UTC
Wind 10 kt from the West
Visibility 10 km or more
Few clouds at a height of 3000 ft
Broken clouds at a height of 4500 ft

TAF: EGXC 260742Z 2609/2703 28010KT 9999 FEW030 BKN045

Weather observations and forecasts of more than 4000 airports (METAR and TAF reports).

The available stations are represented by yellow and red dots on the map.

Hover mouse over dot to see the name of the station.

Then click to see weather observations and forecasts.

To change the map : click on the green buttons with a black cross to zoom in, on the green button with a dash to zoom out, or on the green arrows for adjacent maps.


METAR-TAF: